KBIE/BIE METAR and TAF weather

Enter ICAO airport designator
Station Type Date Time Source
KBIE METAR 2019/02/23 16:55 UTC NOAA

KBIE 231655Z AUTO 03013KT 1 1/4SM BR OVC003 01/01 A2968 RMK AO2 T00070007


Station Type Date Time Source
KBIE Decoded METAR 2019/02/23 16:55 UTC NOAA

Beatrice Municipal, NE, United States (KBIE) 40-18N 096-45W
Feb 23, 2019 - 11:55 AM EST / 2019.02.23 1655 UTC
Wind: from the NNE (030 degrees) at 15 MPH (13 KT):0
Visibility: 1 1/4 mile(s):0
Sky conditions: overcast
Weather: mist
Temperature: 33.3 F (0.7 C)
Windchill: 23 F (-5 C):1
Dew Point: 33.3 F (0.7 C)
Relative Humidity: 100%
Pressure (altimeter): 29.68 in. Hg (1005 hPa)
ob: KBIE 231655Z AUTO 03013KT 1 1/4SM BR OVC003 01/01 A2968 RMK AO2 T00070007
cycle: 17

Station Type Date Time Source
KBIE TAF UTC NOAA

Error!


Example: see airport list